sensor_id;sensor_type;location;lat;lon;timestamp;P1;durP1;ratioP1;P2;durP2;ratioP2
12165;SDS011;6146;48.128;11.476;2023-03-25T00:00:07;1.40;;;1.10;;
12165;SDS011;6146;48.128;11.476;2023-03-25T00:02:41;3.03;;;1.20;;
12165;SDS011;6146;48.128;11.476;2023-03-25T00:05:09;1.30;;;1.20;;
12165;SDS011;6146;48.128;11.476;2023-03-25T00:07:36;1.77;;;1.30;;
12165;SDS011;6146;48.128;11.476;2023-03-25T00:10:02;1.60;;;1.40;;
12165;SDS011;6146;48.128;11.476;2023-03-25T00:12:28;2.23;;;1.27;;
12165;SDS011;6146;48.128;11.476;2023-03-25T00:14:54;2.77;;;1.60;;
12165;SDS011;6146;48.128;11.476;2023-03-25T00:17:22;3.73;;;1.30;;
12165;SDS011;6146;48.128;11.476;2023-03-25T00:19:54;1.40;;;1.30;;
12165;SDS011;6146;48.128;11.476;2023-03-25T00:22:21;1.77;;;1.30;;
12165;SDS011;6146;48.128;11.476;2023-03-25T00:24:47;2.83;;;1.20;;
12165;SDS011;6146;48.128;11.476;2023-03-25T00:27:13;1.23;;;1.13;;
12165;SDS011;6146;48.128;11.476;2023-03-25T00:29:41;1.67;;;1.10;;
12165;SDS011;6146;48.128;11.476;2023-03-25T00:32:07;2.43;;;1.10;;
12165;SDS011;6146;48.128;11.476;2023-03-25T00:34:33;1.77;;;1.37;;
12165;SDS011;6146;48.128;11.476;2023-03-25T00:37:00;1.10;;;1.00;;
12165;SDS011;6146;48.128;11.476;2023-03-25T00:39:28;2.43;;;1.20;;
12165;SDS011;6146;48.128;11.476;2023-03-25T00:41:54;2.50;;;1.50;;
12165;SDS011;6146;48.128;11.476;2023-03-25T00:44:21;1.77;;;1.17;;
12165;SDS011;6146;48.128;11.476;2023-03-25T00:46:47;1.57;;;1.13;;
12165;SDS011;6146;48.128;11.476;2023-03-25T00:49:12;3.13;;;1.43;;
12165;SDS011;6146;48.128;11.476;2023-03-25T00:51:38;2.07;;;1.00;;
12165;SDS011;6146;48.128;11.476;2023-03-25T00:54:03;3.03;;;1.10;;
12165;SDS011;6146;48.128;11.476;2023-03-25T00:56:29;2.10;;;1.13;;
12165;SDS011;6146;48.128;11.476;2023-03-25T00:58:55;1.23;;;1.13;;
12165;SDS011;6146;48.128;11.476;2023-03-25T01:01:22;1.10;;;1.00;;
12165;SDS011;6146;48.128;11.476;2023-03-25T01:03:51;1.93;;;1.20;;
12165;SDS011;6146;48.128;11.476;2023-03-25T01:06:22;1.60;;;1.40;;
12165;SDS011;6146;48.128;11.476;2023-03-25T01:08:56;1.63;;;1.10;;
12165;SDS011;6146;48.128;11.476;2023-03-25T01:11:24;1.77;;;1.30;;
12165;SDS011;6146;48.128;11.476;2023-03-25T01:13:51;2.50;;;1.50;;
12165;SDS011;6146;48.128;11.476;2023-03-25T01:16:18;2.57;;;1.30;;
12165;SDS011;6146;48.128;11.476;2023-03-25T01:18:43;3.10;;;1.20;;
12165;SDS011;6146;48.128;11.476;2023-03-25T01:21:09;1.57;;;1.20;;
12165;SDS011;6146;48.128;11.476;2023-03-25T01:23:34;2.47;;;1.27;;
12165;SDS011;6146;48.128;11.476;2023-03-25T01:26:00;1.77;;;1.17;;
12165;SDS011;6146;48.128;11.476;2023-03-25T01:28:26;5.30;;;1.53;;
12165;SDS011;6146;48.128;11.476;2023-03-25T01:30:58;1.97;;;1.33;;
12165;SDS011;6146;48.128;11.476;2023-03-25T01:33:27;1.93;;;1.27;;
12165;SDS011;6146;48.128;11.476;2023-03-25T01:35:53;1.27;;;1.07;;
12165;SDS011;6146;48.128;11.476;2023-03-25T01:38:19;3.43;;;1.20;;
12165;SDS011;6146;48.128;11.476;2023-03-25T01:40:45;2.93;;;1.10;;
12165;SDS011;6146;48.128;11.476;2023-03-25T01:43:11;1.80;;;1.20;;
12165;SDS011;6146;48.128;11.476;2023-03-25T01:45:37;3.20;;;1.40;;
12165;SDS011;6146;48.128;11.476;2023-03-25T01:50:34;3.30;;;1.10;;
12165;SDS011;6146;48.128;11.476;2023-03-25T01:53:03;2.07;;;1.50;;
12165;SDS011;6146;48.128;11.476;2023-03-25T01:55:31;2.70;;;1.20;;
12165;SDS011;6146;48.128;11.476;2023-03-25T01:57:59;3.60;;;1.30;;
12165;SDS011;6146;48.128;11.476;2023-03-25T02:00:28;2.80;;;1.00;;
12165;SDS011;6146;48.128;11.476;2023-03-25T02:02:56;1.97;;;1.53;;
12165;SDS011;6146;48.128;11.476;2023-03-25T02:05:25;2.67;;;1.23;;
12165;SDS011;6146;48.128;11.476;2023-03-25T02:07:59;3.67;;;1.17;;
12165;SDS011;6146;48.128;11.476;2023-03-25T02:10:27;3.37;;;1.30;;
12165;SDS011;6146;48.128;11.476;2023-03-25T02:12:54;2.37;;;1.20;;
12165;SDS011;6146;48.128;11.476;2023-03-25T02:15:20;3.53;;;1.10;;
12165;SDS011;6146;48.128;11.476;2023-03-25T02:21:00;1.10;;;0.90;;
12165;SDS011;6146;48.128;11.476;2023-03-25T02:32:12;4.10;;;1.43;;
12165;SDS011;6146;48.128;11.476;2023-03-25T02:40:21;3.80;;;1.40;;
12165;SDS011;6146;48.128;11.476;2023-03-25T02:43:38;1.13;;;0.83;;
12165;SDS011;6146;48.128;11.476;2023-03-25T02:46:15;1.83;;;1.00;;
12165;SDS011;6146;48.128;11.476;2023-03-25T02:51:15;2.43;;;0.97;;
12165;SDS011;6146;48.128;11.476;2023-03-25T02:53:45;2.57;;;1.13;;
12165;SDS011;6146;48.128;11.476;2023-03-25T02:56:14;1.83;;;1.10;;
12165;SDS011;6146;48.128;11.476;2023-03-25T02:58:41;1.73;;;1.20;;
12165;SDS011;6146;48.128;11.476;2023-03-25T03:01:10;1.47;;;1.00;;
12165;SDS011;6146;48.128;11.476;2023-03-25T03:03:38;3.70;;;1.40;;
12165;SDS011;6146;48.128;11.476;2023-03-25T03:06:04;3.63;;;1.20;;
12165;SDS011;6146;48.128;11.476;2023-03-25T03:11:28;3.03;;;1.10;;
12165;SDS011;6146;48.128;11.476;2023-03-25T03:16:55;2.03;;;0.90;;
12165;SDS011;6146;48.128;11.476;2023-03-25T03:28:01;1.83;;;0.80;;
12165;SDS011;6146;48.128;11.476;2023-03-25T03:30:32;2.50;;;1.00;;
12165;SDS011;6146;48.128;11.476;2023-03-25T03:33:19;1.77;;;1.20;;
12165;SDS011;6146;48.128;11.476;2023-03-25T03:35:58;3.27;;;0.77;;
12165;SDS011;6146;48.128;11.476;2023-03-25T03:38:29;2.13;;;1.10;;
12165;SDS011;6146;48.128;11.476;2023-03-25T03:41:00;1.77;;;1.13;;
12165;SDS011;6146;48.128;11.476;2023-03-25T03:43:30;1.87;;;1.03;;
12165;SDS011;6146;48.128;11.476;2023-03-25T03:46:07;1.67;;;0.97;;
12165;SDS011;6146;48.128;11.476;2023-03-25T03:48:44;3.67;;;1.17;;
12165;SDS011;6146;48.128;11.476;2023-03-25T03:56:34;2.33;;;1.03;;
12165;SDS011;6146;48.128;11.476;2023-03-25T03:59:10;2.63;;;1.10;;
12165;SDS011;6146;48.128;11.476;2023-03-25T04:01:43;2.20;;;0.97;;
12165;SDS011;6146;48.128;11.476;2023-03-25T04:04:15;3.63;;;1.03;;
12165;SDS011;6146;48.128;11.476;2023-03-25T04:06:50;4.87;;;1.60;;
12165;SDS011;6146;48.128;11.476;2023-03-25T04:09:59;1.80;;;0.87;;
12165;SDS011;6146;48.128;11.476;2023-03-25T04:12:38;3.17;;;1.17;;
12165;SDS011;6146;48.128;11.476;2023-03-25T04:15:08;1.40;;;1.00;;
12165;SDS011;6146;48.128;11.476;2023-03-25T04:17:35;2.00;;;0.90;;
12165;SDS011;6146;48.128;11.476;2023-03-25T04:20:00;4.47;;;1.27;;
12165;SDS011;6146;48.128;11.476;2023-03-25T04:22:30;2.73;;;1.00;;
12165;SDS011;6146;48.128;11.476;2023-03-25T04:24:56;4.23;;;1.77;;
12165;SDS011;6146;48.128;11.476;2023-03-25T04:27:24;2.27;;;0.90;;
12165;SDS011;6146;48.128;11.476;2023-03-25T04:29:53;2.80;;;1.00;;
12165;SDS011;6146;48.128;11.476;2023-03-25T04:32:21;3.30;;;1.10;;
12165;SDS011;6146;48.128;11.476;2023-03-25T04:34:47;6.07;;;1.23;;
12165;SDS011;6146;48.128;11.476;2023-03-25T04:37:13;4.23;;;1.47;;
12165;SDS011;6146;48.128;11.476;2023-03-25T04:39:38;3.00;;;1.20;;
12165;SDS011;6146;48.128;11.476;2023-03-25T04:42:04;1.70;;;1.07;;
12165;SDS011;6146;48.128;11.476;2023-03-25T04:44:30;1.33;;;0.90;;
12165;SDS011;6146;48.128;11.476;2023-03-25T04:47:02;2.77;;;1.00;;
12165;SDS011;6146;48.128;11.476;2023-03-25T04:49:29;1.70;;;1.20;;
12165;SDS011;6146;48.128;11.476;2023-03-25T04:51:55;5.30;;;1.40;;
12165;SDS011;6146;48.128;11.476;2023-03-25T04:54:22;6.30;;;1.23;;
12165;SDS011;6146;48.128;11.476;2023-03-25T04:56:48;6.67;;;1.63;;
12165;SDS011;6146;48.128;11.476;2023-03-25T04:59:15;2.90;;;1.30;;
12165;SDS011;6146;48.128;11.476;2023-03-25T05:01:42;1.90;;;1.17;;
12165;SDS011;6146;48.128;11.476;2023-03-25T05:04:09;3.83;;;1.20;;
12165;SDS011;6146;48.128;11.476;2023-03-25T05:06:38;5.73;;;1.20;;
12165;SDS011;6146;48.128;11.476;2023-03-25T05:09:06;3.70;;;1.57;;
12165;SDS011;6146;48.128;11.476;2023-03-25T05:11:35;4.33;;;1.37;;
12165;SDS011;6146;48.128;11.476;2023-03-25T05:14:03;3.67;;;1.27;;
12165;SDS011;6146;48.128;11.476;2023-03-25T05:16:30;2.67;;;1.27;;
12165;SDS011;6146;48.128;11.476;2023-03-25T05:18:55;2.90;;;1.17;;
12165;SDS011;6146;48.128;11.476;2023-03-25T05:21:21;1.70;;;1.20;;
12165;SDS011;6146;48.128;11.476;2023-03-25T05:23:46;3.03;;;1.17;;
12165;SDS011;6146;48.128;11.476;2023-03-25T05:26:12;4.33;;;1.17;;
12165;SDS011;6146;48.128;11.476;2023-03-25T05:28:38;4.07;;;1.30;;
12165;SDS011;6146;48.128;11.476;2023-03-25T05:31:04;2.77;;;1.40;;
12165;SDS011;6146;48.128;11.476;2023-03-25T05:33:32;3.80;;;0.90;;
12165;SDS011;6146;48.128;11.476;2023-03-25T05:36:01;1.70;;;1.17;;
12165;SDS011;6146;48.128;11.476;2023-03-25T05:38:27;3.57;;;1.20;;
12165;SDS011;6146;48.128;11.476;2023-03-25T05:40:53;2.63;;;0.90;;
12165;SDS011;6146;48.128;11.476;2023-03-25T05:43:18;3.43;;;1.13;;
12165;SDS011;6146;48.128;11.476;2023-03-25T05:45:53;1.93;;;1.00;;
12165;SDS011;6146;48.128;11.476;2023-03-25T05:48:18;1.03;;;0.93;;
12165;SDS011;6146;48.128;11.476;2023-03-25T05:50:44;1.40;;;0.70;;
12165;SDS011;6146;48.128;11.476;2023-03-25T05:53:10;0.50;;;0.47;;
12165;SDS011;6146;48.128;11.476;2023-03-25T05:55:37;0.63;;;0.63;;
12165;SDS011;6146;48.128;11.476;2023-03-25T05:58:03;1.03;;;0.70;;
12165;SDS011;6146;48.128;11.476;2023-03-25T06:00:29;0.90;;;0.50;;
12165;SDS011;6146;48.128;11.476;2023-03-25T06:02:54;0.50;;;0.50;;
12165;SDS011;6146;48.128;11.476;2023-03-25T06:05:22;0.87;;;0.67;;
12165;SDS011;6146;48.128;11.476;2023-03-25T06:07:50;0.60;;;0.47;;
12165;SDS011;6146;48.128;11.476;2023-03-25T06:10:20;0.70;;;0.60;;
12165;SDS011;6146;48.128;11.476;2023-03-25T06:12:46;1.60;;;0.70;;
12165;SDS011;6146;48.128;11.476;2023-03-25T06:15:14;0.50;;;0.50;;
12165;SDS011;6146;48.128;11.476;2023-03-25T06:17:42;0.80;;;0.70;;
12165;SDS011;6146;48.128;11.476;2023-03-25T06:20:10;0.43;;;0.43;;
12165;SDS011;6146;48.128;11.476;2023-03-25T06:22:41;0.40;;;0.40;;
12165;SDS011;6146;48.128;11.476;2023-03-25T06:25:18;0.47;;;0.47;;
12165;SDS011;6146;48.128;11.476;2023-03-25T06:27:46;1.00;;;0.77;;
12165;SDS011;6146;48.128;11.476;2023-03-25T06:30:14;0.27;;;0.23;;
12165;SDS011;6146;48.128;11.476;2023-03-25T06:32:42;0.87;;;0.50;;
12165;SDS011;6146;48.128;11.476;2023-03-25T06:35:08;1.00;;;0.67;;
12165;SDS011;6146;48.128;11.476;2023-03-25T06:37:36;0.40;;;0.33;;
12165;SDS011;6146;48.128;11.476;2023-03-25T06:40:02;1.03;;;0.60;;
12165;SDS011;6146;48.128;11.476;2023-03-25T06:42:30;2.40;;;0.50;;
12165;SDS011;6146;48.128;11.476;2023-03-25T06:44:56;0.90;;;0.57;;
12165;SDS011;6146;48.128;11.476;2023-03-25T06:47:22;0.50;;;0.50;;
12165;SDS011;6146;48.128;11.476;2023-03-25T06:49:48;1.07;;;0.60;;
12165;SDS011;6146;48.128;11.476;2023-03-25T06:52:14;1.07;;;0.50;;
12165;SDS011;6146;48.128;11.476;2023-03-25T06:54:40;0.57;;;0.50;;
12165;SDS011;6146;48.128;11.476;2023-03-25T06:57:05;1.00;;;0.50;;
12165;SDS011;6146;48.128;11.476;2023-03-25T06:59:31;0.70;;;0.70;;
12165;SDS011;6146;48.128;11.476;2023-03-25T07:01:57;1.20;;;0.80;;
12165;SDS011;6146;48.128;11.476;2023-03-25T07:04:23;1.90;;;0.70;;
12165;SDS011;6146;48.128;11.476;2023-03-25T07:06:48;0.60;;;0.60;;
12165;SDS011;6146;48.128;11.476;2023-03-25T07:09:14;0.50;;;0.40;;
12165;SDS011;6146;48.128;11.476;2023-03-25T07:11:39;0.60;;;0.60;;
12165;SDS011;6146;48.128;11.476;2023-03-25T07:14:05;1.50;;;0.57;;
12165;SDS011;6146;48.128;11.476;2023-03-25T07:16:31;0.63;;;0.63;;
12165;SDS011;6146;48.128;11.476;2023-03-25T07:18:57;0.70;;;0.70;;
12165;SDS011;6146;48.128;11.476;2023-03-25T07:21:23;0.97;;;0.60;;
12165;SDS011;6146;48.128;11.476;2023-03-25T07:23:49;1.07;;;0.60;;
12165;SDS011;6146;48.128;11.476;2023-03-25T07:26:15;0.60;;;0.60;;
12165;SDS011;6146;48.128;11.476;2023-03-25T07:28:41;0.67;;;0.60;;
12165;SDS011;6146;48.128;11.476;2023-03-25T07:31:07;0.63;;;0.43;;
12165;SDS011;6146;48.128;11.476;2023-03-25T07:33:37;0.83;;;0.70;;
12165;SDS011;6146;48.128;11.476;2023-03-25T07:36:04;1.47;;;0.40;;
12165;SDS011;6146;48.128;11.476;2023-03-25T07:38:31;0.73;;;0.60;;
12165;SDS011;6146;48.128;11.476;2023-03-25T07:40:57;1.57;;;0.43;;
12165;SDS011;6146;48.128;11.476;2023-03-25T07:43:22;0.83;;;0.60;;
12165;SDS011;6146;48.128;11.476;2023-03-25T07:45:48;1.97;;;0.70;;
12165;SDS011;6146;48.128;11.476;2023-03-25T07:48:14;2.47;;;0.60;;
12165;SDS011;6146;48.128;11.476;2023-03-25T07:50:40;1.27;;;0.70;;
12165;SDS011;6146;48.128;11.476;2023-03-25T07:53:07;0.50;;;0.40;;
12165;SDS011;6146;48.128;11.476;2023-03-25T07:55:34;1.40;;;0.57;;
12165;SDS011;6146;48.128;11.476;2023-03-25T07:58:00;0.77;;;0.60;;
12165;SDS011;6146;48.128;11.476;2023-03-25T08:00:27;0.60;;;0.60;;
12165;SDS011;6146;48.128;11.476;2023-03-25T08:02:53;0.80;;;0.50;;
12165;SDS011;6146;48.128;11.476;2023-03-25T08:05:18;0.93;;;0.70;;
12165;SDS011;6146;48.128;11.476;2023-03-25T08:07:47;1.33;;;0.57;;
12165;SDS011;6146;48.128;11.476;2023-03-25T08:10:13;1.40;;;0.57;;
12165;SDS011;6146;48.128;11.476;2023-03-25T08:12:39;1.50;;;0.90;;
12165;SDS011;6146;48.128;11.476;2023-03-25T08:15:05;0.80;;;0.50;;
12165;SDS011;6146;48.128;11.476;2023-03-25T08:17:31;1.10;;;0.47;;
12165;SDS011;6146;48.128;11.476;2023-03-25T08:19:57;0.70;;;0.30;;
12165;SDS011;6146;48.128;11.476;2023-03-25T08:22:24;0.60;;;0.50;;
12165;SDS011;6146;48.128;11.476;2023-03-25T08:24:51;0.80;;;0.40;;
12165;SDS011;6146;48.128;11.476;2023-03-25T08:27:16;0.30;;;0.30;;
12165;SDS011;6146;48.128;11.476;2023-03-25T08:29:43;0.53;;;0.50;;
12165;SDS011;6146;48.128;11.476;2023-03-25T08:32:09;0.57;;;0.40;;
12165;SDS011;6146;48.128;11.476;2023-03-25T08:34:34;0.50;;;0.50;;
12165;SDS011;6146;48.128;11.476;2023-03-25T08:37:04;2.00;;;0.60;;
12165;SDS011;6146;48.128;11.476;2023-03-25T08:39:31;0.63;;;0.37;;
12165;SDS011;6146;48.128;11.476;2023-03-25T08:42:07;0.50;;;0.50;;
12165;SDS011;6146;48.128;11.476;2023-03-25T08:44:33;1.47;;;0.60;;
12165;SDS011;6146;48.128;11.476;2023-03-25T08:46:59;0.70;;;0.50;;
12165;SDS011;6146;48.128;11.476;2023-03-25T08:49:25;0.40;;;0.40;;
12165;SDS011;6146;48.128;11.476;2023-03-25T08:51:50;0.20;;;0.20;;
12165;SDS011;6146;48.128;11.476;2023-03-25T08:54:16;1.80;;;0.57;;
12165;SDS011;6146;48.128;11.476;2023-03-25T08:56:42;1.97;;;0.73;;
12165;SDS011;6146;48.128;11.476;2023-03-25T08:59:07;0.20;;;0.20;;
12165;SDS011;6146;48.128;11.476;2023-03-25T09:01:33;0.27;;;0.27;;
12165;SDS011;6146;48.128;11.476;2023-03-25T09:03:58;0.73;;;0.60;;
12165;SDS011;6146;48.128;11.476;2023-03-25T09:06:24;0.70;;;0.70;;
12165;SDS011;6146;48.128;11.476;2023-03-25T09:08:50;1.40;;;0.50;;
12165;SDS011;6146;48.128;11.476;2023-03-25T09:11:16;1.57;;;0.57;;
12165;SDS011;6146;48.128;11.476;2023-03-25T09:13:42;1.40;;;0.60;;
12165;SDS011;6146;48.128;11.476;2023-03-25T09:16:07;2.30;;;0.60;;
12165;SDS011;6146;48.128;11.476;2023-03-25T09:18:33;2.17;;;1.23;;
12165;SDS011;6146;48.128;11.476;2023-03-25T09:21:01;0.50;;;0.50;;
12165;SDS011;6146;48.128;11.476;2023-03-25T09:23:26;1.37;;;1.00;;
12165;SDS011;6146;48.128;11.476;2023-03-25T09:25:52;0.90;;;0.60;;
12165;SDS011;6146;48.128;11.476;2023-03-25T09:28:18;1.23;;;0.87;;
12165;SDS011;6146;48.128;11.476;2023-03-25T09:30:44;0.73;;;0.70;;
12165;SDS011;6146;48.128;11.476;2023-03-25T09:33:09;0.83;;;0.80;;
12165;SDS011;6146;48.128;11.476;2023-03-25T09:35:36;2.83;;;0.80;;
12165;SDS011;6146;48.128;11.476;2023-03-25T09:38:04;3.07;;;0.70;;
12165;SDS011;6146;48.128;11.476;2023-03-25T09:40:30;0.87;;;0.67;;
12165;SDS011;6146;48.128;11.476;2023-03-25T09:45:28;2.03;;;0.77;;
12165;SDS011;6146;48.128;11.476;2023-03-25T09:48:18;1.80;;;0.83;;
12165;SDS011;6146;48.128;11.476;2023-03-25T09:51:12;1.10;;;0.70;;
12165;SDS011;6146;48.128;11.476;2023-03-25T09:53:56;1.73;;;0.70;;
12165;SDS011;6146;48.128;11.476;2023-03-25T09:56:26;1.50;;;0.67;;
12165;SDS011;6146;48.128;11.476;2023-03-25T09:59:03;1.07;;;0.77;;
12165;SDS011;6146;48.128;11.476;2023-03-25T10:01:45;2.43;;;0.80;;
12165;SDS011;6146;48.128;11.476;2023-03-25T10:06:56;2.20;;;1.00;;
12165;SDS011;6146;48.128;11.476;2023-03-25T10:12:37;1.50;;;0.80;;
12165;SDS011;6146;48.128;11.476;2023-03-25T10:15:26;1.10;;;0.70;;
12165;SDS011;6146;48.128;11.476;2023-03-25T10:23:10;1.13;;;0.77;;
12165;SDS011;6146;48.128;11.476;2023-03-25T10:25:45;3.07;;;1.40;;
12165;SDS011;6146;48.128;11.476;2023-03-25T10:28:24;1.57;;;0.93;;
12165;SDS011;6146;48.128;11.476;2023-03-25T10:30:57;1.87;;;1.07;;
12165;SDS011;6146;48.128;11.476;2023-03-25T10:33:32;1.83;;;0.77;;
12165;SDS011;6146;48.128;11.476;2023-03-25T10:36:01;1.23;;;1.00;;
12165;SDS011;6146;48.128;11.476;2023-03-25T10:38:29;1.43;;;1.00;;
12165;SDS011;6146;48.128;11.476;2023-03-25T10:43:38;0.70;;;0.70;;
12165;SDS011;6146;48.128;11.476;2023-03-25T10:48:52;1.03;;;0.70;;
12165;SDS011;6146;48.128;11.476;2023-03-25T10:51:19;0.57;;;0.57;;
12165;SDS011;6146;48.128;11.476;2023-03-25T10:53:53;0.73;;;0.60;;
12165;SDS011;6146;48.128;11.476;2023-03-25T10:56:20;0.80;;;0.80;;
12165;SDS011;6146;48.128;11.476;2023-03-25T10:58:51;1.67;;;0.70;;
12165;SDS011;6146;48.128;11.476;2023-03-25T11:01:27;1.00;;;0.80;;
12165;SDS011;6146;48.128;11.476;2023-03-25T11:04:00;1.33;;;0.83;;
12165;SDS011;6146;48.128;11.476;2023-03-25T11:06:29;1.13;;;0.90;;
12165;SDS011;6146;48.128;11.476;2023-03-25T11:11:43;1.20;;;1.10;;
12165;SDS011;6146;48.128;11.476;2023-03-25T11:14:11;1.70;;;1.40;;
12165;SDS011;6146;48.128;11.476;2023-03-25T11:19:21;2.90;;;2.27;;
12165;SDS011;6146;48.128;11.476;2023-03-25T11:21:55;2.30;;;0.90;;
12165;SDS011;6146;48.128;11.476;2023-03-25T11:24:26;0.50;;;0.50;;
12165;SDS011;6146;48.128;11.476;2023-03-25T11:26:56;0.67;;;0.60;;
12165;SDS011;6146;48.128;11.476;2023-03-25T11:29:23;0.70;;;0.60;;
12165;SDS011;6146;48.128;11.476;2023-03-25T11:32:24;0.50;;;0.50;;
12165;SDS011;6146;48.128;11.476;2023-03-25T11:34:46;0.40;;;0.40;;
12165;SDS011;6146;48.128;11.476;2023-03-25T11:37:18;0.50;;;0.50;;
12165;SDS011;6146;48.128;11.476;2023-03-25T11:39:50;0.60;;;0.30;;
12165;SDS011;6146;48.128;11.476;2023-03-25T11:42:32;0.40;;;0.40;;
12165;SDS011;6146;48.128;11.476;2023-03-25T11:45:12;0.27;;;0.27;;
12165;SDS011;6146;48.128;11.476;2023-03-25T11:47:44;0.20;;;0.20;;
12165;SDS011;6146;48.128;11.476;2023-03-25T11:50:17;1.03;;;0.60;;
12165;SDS011;6146;48.128;11.476;2023-03-25T11:52:49;0.37;;;0.37;;
12165;SDS011;6146;48.128;11.476;2023-03-25T11:55:30;1.10;;;0.40;;
12165;SDS011;6146;48.128;11.476;2023-03-25T11:58:12;0.53;;;0.40;;
12165;SDS011;6146;48.128;11.476;2023-03-25T12:00:46;0.50;;;0.40;;
12165;SDS011;6146;48.128;11.476;2023-03-25T12:05:43;2.67;;;2.00;;
12165;SDS011;6146;48.128;11.476;2023-03-25T12:11:34;0.50;;;0.50;;
12165;SDS011;6146;48.128;11.476;2023-03-25T12:19:47;1.33;;;0.53;;
12165;SDS011;6146;48.128;11.476;2023-03-25T12:22:22;0.63;;;0.63;;
12165;SDS011;6146;48.128;11.476;2023-03-25T12:33:33;0.50;;;0.50;;
12165;SDS011;6146;48.128;11.476;2023-03-25T12:36:20;1.27;;;0.60;;
12165;SDS011;6146;48.128;11.476;2023-03-25T12:39:04;0.80;;;0.50;;
12165;SDS011;6146;48.128;11.476;2023-03-25T13:03:43;1.37;;;0.43;;
12165;SDS011;6146;48.128;11.476;2023-03-25T13:06:15;0.90;;;0.50;;
12165;SDS011;6146;48.128;11.476;2023-03-25T13:11:22;0.87;;;0.43;;
12165;SDS011;6146;48.128;11.476;2023-03-25T13:14:12;0.40;;;0.40;;
12165;SDS011;6146;48.128;11.476;2023-03-25T13:16:47;0.87;;;0.50;;
12165;SDS011;6146;48.128;11.476;2023-03-25T13:19:17;1.07;;;0.40;;
12165;SDS011;6146;48.128;11.476;2023-03-25T13:21:49;0.50;;;0.50;;
12165;SDS011;6146;48.128;11.476;2023-03-25T13:24:26;2.07;;;0.70;;
12165;SDS011;6146;48.128;11.476;2023-03-25T13:27:09;1.80;;;0.63;;
12165;SDS011;6146;48.128;11.476;2023-03-25T13:29:41;0.40;;;0.40;;
12165;SDS011;6146;48.128;11.476;2023-03-25T13:32:22;1.70;;;0.77;;
12165;SDS011;6146;48.128;11.476;2023-03-25T13:37:44;0.87;;;0.87;;
12165;SDS011;6146;48.128;11.476;2023-03-25T13:40:26;0.70;;;0.70;;
12165;SDS011;6146;48.128;11.476;2023-03-25T13:45:31;0.50;;;0.50;;
12165;SDS011;6146;48.128;11.476;2023-03-25T13:48:20;0.40;;;0.40;;
12165;SDS011;6146;48.128;11.476;2023-03-25T13:51:00;1.03;;;0.60;;
12165;SDS011;6146;48.128;11.476;2023-03-25T13:53:47;1.10;;;0.80;;
12165;SDS011;6146;48.128;11.476;2023-03-25T14:01:46;0.63;;;0.63;;
12165;SDS011;6146;48.128;11.476;2023-03-25T14:04:43;2.67;;;0.37;;
12165;SDS011;6146;48.128;11.476;2023-03-25T14:07:48;1.67;;;0.43;;
12165;SDS011;6146;48.128;11.476;2023-03-25T14:16:00;1.57;;;0.70;;
12165;SDS011;6146;48.128;11.476;2023-03-25T14:18:29;0.43;;;0.43;;
12165;SDS011;6146;48.128;11.476;2023-03-25T14:20:56;0.83;;;0.60;;
12165;SDS011;6146;48.128;11.476;2023-03-25T14:23:42;1.13;;;0.80;;
12165;SDS011;6146;48.128;11.476;2023-03-25T14:26:08;0.53;;;0.53;;
12165;SDS011;6146;48.128;11.476;2023-03-25T14:28:35;0.60;;;0.60;;
12165;SDS011;6146;48.128;11.476;2023-03-25T14:34:10;0.53;;;0.53;;
12165;SDS011;6146;48.128;11.476;2023-03-25T14:36:30;2.53;;;0.73;;
12165;SDS011;6146;48.128;11.476;2023-03-25T14:44:36;1.10;;;1.00;;
12165;SDS011;6146;48.128;11.476;2023-03-25T14:52:37;1.73;;;0.40;;
12165;SDS011;6146;48.128;11.476;2023-03-25T15:00:47;1.20;;;0.80;;
12165;SDS011;6146;48.128;11.476;2023-03-25T15:03:19;0.70;;;0.70;;
12165;SDS011;6146;48.128;11.476;2023-03-25T15:05:55;2.47;;;1.10;;
12165;SDS011;6146;48.128;11.476;2023-03-25T15:08:23;1.83;;;0.90;;
12165;SDS011;6146;48.128;11.476;2023-03-25T15:13:49;0.40;;;0.40;;
12165;SDS011;6146;48.128;11.476;2023-03-25T15:19:02;1.67;;;0.83;;
12165;SDS011;6146;48.128;11.476;2023-03-25T15:24:31;0.40;;;0.40;;
12165;SDS011;6146;48.128;11.476;2023-03-25T15:27:00;1.20;;;0.90;;
12165;SDS011;6146;48.128;11.476;2023-03-25T15:35:31;0.67;;;0.67;;
12165;SDS011;6146;48.128;11.476;2023-03-25T15:39:07;1.27;;;0.73;;
12165;SDS011;6146;48.128;11.476;2023-03-25T15:41:19;1.20;;;0.90;;
12165;SDS011;6146;48.128;11.476;2023-03-25T15:52:09;1.60;;;0.87;;
12165;SDS011;6146;48.128;11.476;2023-03-25T15:55:03;1.23;;;0.70;;
12165;SDS011;6146;48.128;11.476;2023-03-25T15:57:52;1.70;;;0.60;;
12165;SDS011;6146;48.128;11.476;2023-03-25T16:00:23;3.20;;;0.83;;
12165;SDS011;6146;48.128;11.476;2023-03-25T16:02:56;1.20;;;0.77;;
12165;SDS011;6146;48.128;11.476;2023-03-25T16:05:31;1.23;;;0.80;;
12165;SDS011;6146;48.128;11.476;2023-03-25T16:07:58;0.80;;;0.80;;
12165;SDS011;6146;48.128;11.476;2023-03-25T16:10:39;0.70;;;0.70;;
12165;SDS011;6146;48.128;11.476;2023-03-25T16:13:08;1.97;;;0.87;;
12165;SDS011;6146;48.128;11.476;2023-03-25T16:15:47;0.80;;;0.80;;
12165;SDS011;6146;48.128;11.476;2023-03-25T16:18:16;1.60;;;0.90;;
12165;SDS011;6146;48.128;11.476;2023-03-25T16:20:42;1.20;;;1.10;;
12165;SDS011;6146;48.128;11.476;2023-03-25T16:23:16;1.30;;;0.83;;
12165;SDS011;6146;48.128;11.476;2023-03-25T16:25:45;2.73;;;1.00;;
12165;SDS011;6146;48.128;11.476;2023-03-25T16:28:14;0.80;;;0.80;;
12165;SDS011;6146;48.128;11.476;2023-03-25T16:30:46;1.83;;;1.10;;
12165;SDS011;6146;48.128;11.476;2023-03-25T16:33:15;2.00;;;1.00;;
12165;SDS011;6146;48.128;11.476;2023-03-25T16:35:46;1.73;;;1.00;;
12165;SDS011;6146;48.128;11.476;2023-03-25T16:38:23;2.03;;;1.70;;
12165;SDS011;6146;48.128;11.476;2023-03-25T16:40:49;2.47;;;1.90;;
12165;SDS011;6146;48.128;11.476;2023-03-25T16:45:44;2.87;;;1.20;;
12165;SDS011;6146;48.128;11.476;2023-03-25T16:48:21;1.60;;;0.90;;
12165;SDS011;6146;48.128;11.476;2023-03-25T16:50:51;1.53;;;1.30;;
12165;SDS011;6146;48.128;11.476;2023-03-25T16:53:18;1.63;;;0.87;;
12165;SDS011;6146;48.128;11.476;2023-03-25T16:56:29;2.27;;;1.60;;
12165;SDS011;6146;48.128;11.476;2023-03-25T16:58:47;2.27;;;1.60;;
12165;SDS011;6146;48.128;11.476;2023-03-25T17:01:23;2.13;;;1.10;;
12165;SDS011;6146;48.128;11.476;2023-03-25T17:03:50;1.50;;;1.10;;
12165;SDS011;6146;48.128;11.476;2023-03-25T17:06:20;1.57;;;1.30;;
12165;SDS011;6146;48.128;11.476;2023-03-25T17:08:52;1.07;;;0.90;;
12165;SDS011;6146;48.128;11.476;2023-03-25T17:11:20;0.93;;;0.83;;
12165;SDS011;6146;48.128;11.476;2023-03-25T17:13:48;0.77;;;0.70;;
12165;SDS011;6146;48.128;11.476;2023-03-25T17:16:16;0.97;;;0.97;;
12165;SDS011;6146;48.128;11.476;2023-03-25T17:18:43;3.73;;;2.80;;
12165;SDS011;6146;48.128;11.476;2023-03-25T17:21:33;6.27;;;4.87;;
12165;SDS011;6146;48.128;11.476;2023-03-25T17:24:19;1.40;;;1.30;;
12165;SDS011;6146;48.128;11.476;2023-03-25T17:26:56;0.90;;;0.70;;
12165;SDS011;6146;48.128;11.476;2023-03-25T17:29:29;1.87;;;1.33;;
12165;SDS011;6146;48.128;11.476;2023-03-25T17:31:56;1.43;;;0.90;;
12165;SDS011;6146;48.128;11.476;2023-03-25T17:34:23;0.90;;;0.90;;
12165;SDS011;6146;48.128;11.476;2023-03-25T17:36:59;0.60;;;0.60;;
12165;SDS011;6146;48.128;11.476;2023-03-25T17:39:29;1.43;;;0.90;;
12165;SDS011;6146;48.128;11.476;2023-03-25T17:41:57;1.70;;;1.10;;
12165;SDS011;6146;48.128;11.476;2023-03-25T17:44:28;1.53;;;1.43;;
12165;SDS011;6146;48.128;11.476;2023-03-25T17:47:01;1.60;;;0.70;;
12165;SDS011;6146;48.128;11.476;2023-03-25T17:49:27;0.70;;;0.70;;
12165;SDS011;6146;48.128;11.476;2023-03-25T17:51:53;1.43;;;1.30;;
12165;SDS011;6146;48.128;11.476;2023-03-25T17:54:19;2.17;;;1.27;;
12165;SDS011;6146;48.128;11.476;2023-03-25T17:56:45;2.07;;;0.90;;
12165;SDS011;6146;48.128;11.476;2023-03-25T17:59:13;2.17;;;1.27;;